Flight Track Log - Related Links

Times and Time Zones

All times are in EDT time to prevent confusion due to time zone crossing. See the LXJ342 flight status page for this flight to view local times or setup timezone preferences in your user account.

Time Position Orientation Groundspeed Altitude Reporting Facility
EDT Latitude Longitude Course Direction KTS MPH feet Rate Location/Type
Fri 11:26:20 AM 43.5467 -72.4686 235° Southwest 432 497 4,700  Level Boston Center
Fri 11:27:20 AM 43.4778 -72.4772 185° South 317 365 6,500 2,900 Climbing Boston Center
Fri 11:28:00 AM 43.5583 -72.4335 235° Southwest  Level FlightAware Approximate
Fri 11:28:20 AM 43.3986 -72.4831 183° South 286 329 10,500  Level Boston Center
Fri 11:29:20 AM 43.3422 -72.5572 224° Southwest 286 329 14,000 3,500 Climbing Boston Center
Fri 11:30:20 AM 43.3358 -72.6828 266° West 274 315 17,500 3,000 Climbing Boston Center
Fri 11:31:20 AM 43.3314 -72.8111 267° West 320 368 20,000 2,550 Climbing Boston Center
Fri 11:32:20 AM 43.3267 -72.9508 267° West 341 392 22,600 2,800 Climbing Boston Center
Fri 11:33:20 AM 43.3217 -73.0908 267° West 364 419 25,600 2,850 Climbing Boston Center
Fri 11:34:20 AM 43.3083 -73.2275 262° West 371 427 28,300 2,450 Climbing Boston Center
Fri 11:35:20 AM 43.2886 -73.3814 260° West 371 427 30,500 1,650 Climbing Boston Center
Fri 11:36:20 AM 43.2747 -73.5294 263° West 377 434 31,600 1,100 Climbing Boston Center
Fri 11:37:20 AM 43.2606 -73.6861 263° West 399 459 32,700 1,100 Climbing Boston Center
Fri 11:38:20 AM 43.2461 -73.8453 263° West 413 475 33,800 1,150 Climbing Boston Center
Fri 11:39:20 AM 43.2339 -73.9961 264° West 413 475 35,000 1,200 Climbing Boston Center
Fri 11:40:20 AM 43.2172 -74.1467 261° West 413 475 36,200 1,200 Climbing Boston Center
Fri 11:41:20 AM 43.2003 -74.2972 261° West 408 470 37,400 1,150 Climbing Boston Center
Fri 11:42:20 AM 43.1872 -74.4506 263° West 408 470 38,500 1,050 Climbing Boston Center
Fri 11:43:20 AM 43.1719 -74.5981 262° West 408 470 39,500 750 Climbing Boston Center
Fri 11:44:20 AM 43.1544 -74.7483 261° West 408 470 40,000 250 Climbing Boston Center
Fri 11:45:20 AM 43.1386 -74.9014 262° West 408 470 40,000  Level Boston Center
Fri 11:46:20 AM 43.1203 -75.0686 262° West 420 483 40,000  Level Boston Center
Fri 11:47:20 AM 43.1019 -75.2328 261° West 432 497 40,000  Level Boston Center
Fri 11:48:20 AM 43.0878 -75.3772 262° West 437 503 40,000  Level Boston Center
Fri 11:49:20 AM 43.0692 -75.5353 261° West 437 503 40,000  Level Boston Center
Fri 11:50:20 AM 43.0542 -75.6908 263° West 424 488 40,000  Level Boston Center
Fri 11:51:32 AM 43.0353 -75.8461 261° West 424 488 40,000  Level Boston Center
Fri 11:52:32 AM 43.0147 -76.0356 262° West 424 488 40,000  Level Boston Center
Fri 11:54:48 AM 42.9722 -76.3975 261° West 428 493 40,000  Level Cleveland Center
Fri 11:55:48 AM 42.9508 -76.5550 260° West 428 493 40,000  Level Cleveland Center
Fri 11:56:48 AM 42.9311 -76.7122 260° West 428 493 40,000  Level Cleveland Center
Fri 11:57:48 AM 42.9133 -76.8692 261° West 428 493 40,000  Level Cleveland Center
Fri 11:58:48 AM 42.8933 -77.0264 260° West 428 493 40,000  Level Cleveland Center
Fri 11:59:48 AM 42.8478 -77.1764 248° West 428 493 40,000  Level Cleveland Center
Fri 12:00:48 PM 42.8019 -77.3203 247° West 428 493 40,000  Level Cleveland Center
Fri 12:01:48 PM 42.7536 -77.4642 245° Southwest 428 493 40,000  Level Cleveland Center
Fri 12:02:48 PM 42.7056 -77.6136 246° West 422 486 40,000  Level Cleveland Center
Fri 12:03:48 PM 42.6550 -77.7600 245° Southwest 427 491 40,000  Level Cleveland Center
Fri 12:04:48 PM 42.6064 -77.9061 246° West 427 491 40,000  Level Cleveland Center
Fri 12:05:48 PM 42.5594 -78.0489 246° West 427 491 40,000  Level Cleveland Center
Fri 12:06:48 PM 42.5106 -78.1947 246° West 427 491 40,000  Level Cleveland Center
Fri 12:07:48 PM 42.4614 -78.3372 245° Southwest 427 491 40,000  Level Cleveland Center
Fri 12:08:48 PM 42.4119 -78.4853 246° West 427 491 40,000  Level Cleveland Center
Fri 12:09:48 PM 42.3642 -78.6189 244° Southwest 434 499 40,000  Level Cleveland Center
Fri 12:10:48 PM 42.3106 -78.7750 245° Southwest 429 494 40,000  Level Cleveland Center
Fri 12:11:48 PM 42.2606 -78.9194 245° Southwest 429 494 40,000  Level Cleveland Center
Fri 12:12:48 PM 42.2083 -79.0667 244° Southwest 429 494 40,000  Level Cleveland Center
Fri 12:13:48 PM 42.1644 -79.2133 248° West 429 494 40,000  Level Cleveland Center
Fri 12:14:48 PM 42.1267 -79.3653 252° West 429 494 40,000  Level Cleveland Center
Fri 12:15:48 PM 42.0864 -79.5200 251° West 429 494 40,000  Level Cleveland Center
Fri 12:16:48 PM 42.0481 -79.6689 251° West 434 499 40,000  Level Cleveland Center
Fri 12:17:48 PM 42.0075 -79.8203 250° West 434 499 40,000  Level Cleveland Center
Fri 12:18:48 PM 41.9689 -79.9717 251° West 434 499 40,000  Level Cleveland Center
Fri 12:19:48 PM 41.9278 -80.1200 250° West 434 499 40,000  Level Cleveland Center
Fri 12:20:48 PM 41.8867 -80.2708 250° West 434 499 40,000  Level Cleveland Center
Fri 12:21:48 PM 41.8472 -80.4214 251° West 429 494 40,000  Level Cleveland Center
Fri 12:22:48 PM 41.8058 -80.5747 250° West 434 499 40,000  Level Cleveland Center
Fri 12:23:48 PM 41.7681 -80.7083 249° West 434 499 40,000  Level Cleveland Center
Fri 12:24:48 PM 41.7261 -80.8558 249° West 429 494 40,000  Level Cleveland Center
Fri 12:25:48 PM 41.6861 -81.0031 250° West 429 494 40,000  Level Cleveland Center
Fri 12:26:48 PM 41.6458 -81.1528 250° West 429 494 40,000  Level Cleveland Center
Fri 12:27:48 PM 41.6056 -81.2994 250° West 429 494 40,000  Level Cleveland Center
Fri 12:28:48 PM 41.5628 -81.4461 249° West 424 488 40,000  Level Cleveland Center
Fri 12:29:48 PM 41.5447 -81.6014 261° West 419 482 40,000  Level Cleveland Center
Fri 12:30:48 PM 41.5433 -81.7622 269° West 424 488 40,000  Level Cleveland Center
Fri 12:31:48 PM 41.5394 -81.9203 268° West 424 488 40,000  Level Cleveland Center
Fri 12:32:48 PM 41.5394 -82.0811 270° West 424 488 40,000  Level Cleveland Center
Fri 12:33:48 PM 41.5372 -82.2419 269° West 432 497 40,000  Level Cleveland Center
Fri 12:34:48 PM 41.5328 -82.4056 268° West 442 509 40,000  Level Cleveland Center
Fri 12:35:48 PM 41.5297 -82.5775 269° West 442 509 40,000  Level Cleveland Center
Fri 12:36:48 PM 41.5269 -82.7383 269° West 442 509 40,000  Level Cleveland Center
Fri 12:37:48 PM 41.5258 -82.8964 270° West 442 509 40,000  Level Cleveland Center
Fri 12:38:48 PM 41.5206 -83.0569 268° West 437 503 40,000  Level Cleveland Center
Fri 12:39:48 PM 41.5153 -83.1956 267° West 437 503 40,000  Level Cleveland Center
Fri 12:40:48 PM 41.5136 -83.3536 269° West 432 497 40,000  Level Cleveland Center
Fri 12:41:48 PM 41.5078 -83.5114 267° West 432 497 40,000 -200 Level Cleveland Center
Fri 12:43:00 PM 41.4994 -83.6862 268° West  Level FlightAware Approximate
Fri 12:43:48 PM 41.5033 -83.8244 268° West 421 484 39,400  Level Cleveland Center
Fri 12:44:48 PM 41.4989 -83.9822 268° West 421 484 38,400 -1,050 Descending Cleveland Center
Fri 12:45:48 PM 41.4942 -84.1347 268° West 421 484 37,300 -1,725 Descending Cleveland Center
Fri 12:47:21 PM 41.4897 -84.3678 269° West 414 476 34,000 -2,129 Descending Chicago Center
Fri 12:48:23 PM 41.4847 -84.5192 268° West 412 474 31,800 -1,935 Descending Chicago Center
Fri 12:49:25 PM 41.4808 -84.6792 268° West 427 491 30,000 -871 Descending Chicago Center
Fri 12:50:27 PM 41.4897 -84.8753 274° West 442 509 30,000  Level Chicago Center
Fri 12:51:29 PM 41.4947 -85.0478 272° West 461 531 30,000  Level Chicago Center
Fri 12:52:30 PM 41.5017 -85.2219 273° West 468 539 30,000  Level Chicago Center
Fri 12:53:32 PM 41.5369 -85.3869 286° West 471 542 30,000 -48 Level Chicago Center
Fri 12:54:34 PM 41.6556 -85.4772 330° Northwest 488 562 29,900 -968 Descending Chicago Center
Fri 12:55:36 PM 41.7828 -85.5769 330° Northwest 486 559 28,000 -1,887 Descending Chicago Center
Fri 12:56:38 PM 41.8992 -85.6658 330° Northwest 481 554 26,000 -1,935 Descending Chicago Center
Fri 12:57:40 PM 42.0233 -85.7617 330° Northwest 466 536 24,000 -968 Descending Chicago Center
Fri 12:58:42 PM 42.1283 -85.8431 330° Northwest 440 506 24,000  Level Chicago Center
Fri 12:59:44 PM 42.2364 -85.9267 330° Northwest 446 513 24,000  Level Chicago Center
Fri 01:00:46 PM 42.3431 -86.0089 330° Northwest 442 509 24,000  Level Chicago Center
Fri 01:01:48 PM 42.4408 -86.1072 323° Northwest 448 516 24,000 -387 Level Chicago Center
Fri 01:02:50 PM 42.4553 -86.2658 277° West 434 499 23,200 -1,694 Descending Chicago Center
Fri 01:03:52 PM 42.4481 -86.4244 267° West 422 486 20,500 -3,000 Descending Chicago Center
Fri 01:04:54 PM 42.4389 -86.6019 266° West 397 457 17,000 -3,000 Descending Chicago Center
Fri 01:05:56 PM 42.4328 -86.7428 267° West 378 435 14,300 -2,516 Descending Chicago Center
Fri 01:06:58 PM 42.4247 -86.8706 265° West 347 399 11,800 -2,256 Descending Chicago Center
Fri 01:08:01 PM 42.4181 -86.9819 265° West 302 348 9,600 -2,064 Descending Chicago Center
Fri 01:09:03 PM 42.4106 -87.0892 265° West 289 333 7,500 -2,323 Descending Chicago Center
Fri 01:10:05 PM 42.4042 -87.1917 265° West 275 316 4,800 -2,081 Descending Chicago Center
Fri 01:11:07 PM 42.3978 -87.3150 266° West 275 316 3,200 -871 Descending Chicago Center
Fri 01:12:09 PM 42.3772 -87.4069 253° West 267 307 3,000 -97 Descending Chicago Center
Fri 01:13:11 PM 42.3475 -87.4853 243° Southwest 259 298 3,000  Level Chicago Center
Fri 01:14:13 PM 42.3108 -87.5522 233° Southwest 241 277 3,000  Level Chicago Center
Fri 01:15:15 PM 42.3222 -87.6375 280° West 226 260 3,000  Level Chicago Center
Fri 01:16:17 PM 42.3308 -87.7233 278° West 224 258 3,000 -242 Level Chicago Center
Fri 01:17:19 PM 42.3406 -87.8106 279° West 223 257 2,500 -290 Descending Chicago Center
Fri 01:18:21 PM 42.3472 -87.8842 277° West 222 255 2,400 -97 Descending Chicago Center
Fri 01:19:23 PM 42.3303 -87.9575 253° West 214 246 2,300  Descending Chicago Center
Fri 01:20:26 PM 42.2858 -87.9903 209° Southwest 185 213 2,400 48 Climbing Chicago Center
Fri 01:21:28 PM 42.2444 -87.9742 164° South 166 191 2,400  Level Chicago Center
Fri 01:22:30 PM 42.2044 -87.9533 159° South 158 182 2,400 -290 Level Chicago Center
Fri 01:23:32 PM 42.1733 -87.9328 154° Southeast 139 160 1,800 -387 Descending Chicago Center
Fri 01:24:34 PM 42.1436 -87.9189 161° South 135 155 1,600 -194 Descending Chicago Center
Fri 01:26:00 PM 42.0027 -87.8419 162° South  Level FlightAware Approximate
Fri 01:33:00 PM 41.7833 -87.7500 166° South  Level FlightAware Approximate
Fri 01:34:00 PM 41.7860 -87.7524 166° South  Level Estimated
Fri 01:35:00 PM 41.7833 -87.7500 166° South  Level FlightAware Approximate
Fri 01:36:00 PM 41.7860 -87.7524 166° South  Level Estimated
Fri 01:37:00 PM 41.7833 -87.7500 166° South  Level FlightAware Approximate
Fri 01:38:00 PM 41.7860 -87.7524 166° South  Level Estimated
Fri 01:39:00 PM 41.7833 -87.7500 166° South  Level FlightAware Approximate
Fri 01:40:00 PM 41.7860 -87.7524 166° South  Level Estimated
Fri 01:41:00 PM 41.7833 -87.7500 166° South  Level FlightAware Approximate
Fri 01:42:00 PM 41.7860 -87.7524 166° South  Level Estimated
Fri 01:43:00 PM 41.7833 -87.7500 166° South  Level FlightAware Approximate
Fri 01:44:00 PM 41.7860 -87.7524 166° South  Level Estimated

Login

Don't have an account? Register now (free) for customized features, flight alerts, and more!